sensor_id;sensor_type;location;lat;lon;timestamp;temperature;humidity
16412;DHT22;8315;52.104;6.304;2023-01-28T00:00:35;4.60;98.40
16412;DHT22;8315;52.104;6.304;2023-01-28T00:03:02;4.50;98.40
16412;DHT22;8315;52.104;6.304;2023-01-28T00:05:30;4.60;98.40
16412;DHT22;8315;52.104;6.304;2023-01-28T00:07:57;4.70;98.40
16412;DHT22;8315;52.104;6.304;2023-01-28T00:10:24;4.60;98.40
16412;DHT22;8315;52.104;6.304;2023-01-28T00:12:51;4.50;98.40
16412;DHT22;8315;52.104;6.304;2023-01-28T00:15:18;4.60;98.40
16412;DHT22;8315;52.104;6.304;2023-01-28T00:17:45;4.50;98.40
16412;DHT22;8315;52.104;6.304;2023-01-28T00:20:12;4.50;98.40
16412;DHT22;8315;52.104;6.304;2023-01-28T00:22:40;4.50;98.40
16412;DHT22;8315;52.104;6.304;2023-01-28T00:25:07;4.50;98.40
16412;DHT22;8315;52.104;6.304;2023-01-28T00:27:34;4.50;98.40
16412;DHT22;8315;52.104;6.304;2023-01-28T00:30:01;4.60;98.40
16412;DHT22;8315;52.104;6.304;2023-01-28T00:32:27;4.70;98.40
16412;DHT22;8315;52.104;6.304;2023-01-28T00:34:54;4.70;98.40
16412;DHT22;8315;52.104;6.304;2023-01-28T00:37:21;4.50;98.40
16412;DHT22;8315;52.104;6.304;2023-01-28T00:39:49;4.30;98.40
16412;DHT22;8315;52.104;6.304;2023-01-28T00:42:16;4.30;98.40
16412;DHT22;8315;52.104;6.304;2023-01-28T00:44:43;4.50;98.40
16412;DHT22;8315;52.104;6.304;2023-01-28T00:47:10;4.50;98.40
16412;DHT22;8315;52.104;6.304;2023-01-28T00:49:37;4.50;98.40
16412;DHT22;8315;52.104;6.304;2023-01-28T00:52:03;4.40;98.40
16412;DHT22;8315;52.104;6.304;2023-01-28T00:54:30;4.50;98.40
16412;DHT22;8315;52.104;6.304;2023-01-28T00:57:00;4.50;98.40
16412;DHT22;8315;52.104;6.304;2023-01-28T00:59:27;4.60;98.40
16412;DHT22;8315;52.104;6.304;2023-01-28T01:01:53;4.60;98.40
16412;DHT22;8315;52.104;6.304;2023-01-28T01:04:37;4.40;98.40
16412;DHT22;8315;52.104;6.304;2023-01-28T01:07:03;4.40;98.40
16412;DHT22;8315;52.104;6.304;2023-01-28T01:09:30;4.40;98.40
16412;DHT22;8315;52.104;6.304;2023-01-28T01:11:57;4.50;98.40
16412;DHT22;8315;52.104;6.304;2023-01-28T01:14:26;4.50;98.40
16412;DHT22;8315;52.104;6.304;2023-01-28T01:16:53;4.40;98.40
16412;DHT22;8315;52.104;6.304;2023-01-28T01:19:19;4.40;98.40
16412;DHT22;8315;52.104;6.304;2023-01-28T01:21:46;4.50;98.40
16412;DHT22;8315;52.104;6.304;2023-01-28T01:24:15;4.50;98.40
16412;DHT22;8315;52.104;6.304;2023-01-28T01:26:42;4.40;98.40
16412;DHT22;8315;52.104;6.304;2023-01-28T01:29:08;4.30;98.40
16412;DHT22;8315;52.104;6.304;2023-01-28T01:31:37;4.30;98.40
16412;DHT22;8315;52.104;6.304;2023-01-28T01:34:04;4.30;98.40
16412;DHT22;8315;52.104;6.304;2023-01-28T01:36:31;4.30;98.40
16412;DHT22;8315;52.104;6.304;2023-01-28T01:38:57;4.30;98.40
16412;DHT22;8315;52.104;6.304;2023-01-28T01:41:25;4.30;98.40
16412;DHT22;8315;52.104;6.304;2023-01-28T01:43:54;4.40;98.40
16412;DHT22;8315;52.104;6.304;2023-01-28T01:46:23;4.40;98.40
16412;DHT22;8315;52.104;6.304;2023-01-28T01:48:54;4.40;98.40
16412;DHT22;8315;52.104;6.304;2023-01-28T01:51:23;4.40;98.40
16412;DHT22;8315;52.104;6.304;2023-01-28T01:53:52;4.40;98.40
16412;DHT22;8315;52.104;6.304;2023-01-28T01:56:20;4.30;98.40
16412;DHT22;8315;52.104;6.304;2023-01-28T01:58:49;4.40;98.40
16412;DHT22;8315;52.104;6.304;2023-01-28T02:01:19;4.30;98.40
16412;DHT22;8315;52.104;6.304;2023-01-28T02:03:50;4.30;98.40
16412;DHT22;8315;52.104;6.304;2023-01-28T02:06:21;4.30;98.40
16412;DHT22;8315;52.104;6.304;2023-01-28T02:08:48;4.30;98.40
16412;DHT22;8315;52.104;6.304;2023-01-28T02:11:15;4.20;98.40
16412;DHT22;8315;52.104;6.304;2023-01-28T02:13:45;4.10;98.40
16412;DHT22;8315;52.104;6.304;2023-01-28T02:16:13;4.10;98.40
16412;DHT22;8315;52.104;6.304;2023-01-28T02:18:40;4.20;98.40
16412;DHT22;8315;52.104;6.304;2023-01-28T02:21:25;4.10;98.40
16412;DHT22;8315;52.104;6.304;2023-01-28T02:24:18;4.10;98.40
16412;DHT22;8315;52.104;6.304;2023-01-28T02:26:56;4.00;98.40
16412;DHT22;8315;52.104;6.304;2023-01-28T02:29:40;4.10;98.40
16412;DHT22;8315;52.104;6.304;2023-01-28T02:32:11;4.00;98.40
16412;DHT22;8315;52.104;6.304;2023-01-28T02:34:42;4.00;98.40
16412;DHT22;8315;52.104;6.304;2023-01-28T02:37:13;3.90;98.40
16412;DHT22;8315;52.104;6.304;2023-01-28T02:39:42;4.00;98.40
16412;DHT22;8315;52.104;6.304;2023-01-28T02:42:12;4.00;98.40
16412;DHT22;8315;52.104;6.304;2023-01-28T02:44:42;4.00;98.40
16412;DHT22;8315;52.104;6.304;2023-01-28T02:47:09;4.00;98.40
16412;DHT22;8315;52.104;6.304;2023-01-28T02:49:53;3.80;98.40
16412;DHT22;8315;52.104;6.304;2023-01-28T02:52:29;3.80;98.40
16412;DHT22;8315;52.104;6.304;2023-01-28T02:55:21;3.80;98.40
16412;DHT22;8315;52.104;6.304;2023-01-28T02:57:55;4.00;98.40
16412;DHT22;8315;52.104;6.304;2023-01-28T03:00:29;3.90;98.40
16412;DHT22;8315;52.104;6.304;2023-01-28T03:03:01;4.00;98.40
16412;DHT22;8315;52.104;6.304;2023-01-28T03:05:35;3.90;98.40
16412;DHT22;8315;52.104;6.304;2023-01-28T03:08:04;3.80;98.40
16412;DHT22;8315;52.104;6.304;2023-01-28T03:10:52;3.90;98.40
16412;DHT22;8315;52.104;6.304;2023-01-28T03:13:38;4.00;98.40
16412;DHT22;8315;52.104;6.304;2023-01-28T03:16:25;4.10;98.40
16412;DHT22;8315;52.104;6.304;2023-01-28T03:19:10;4.10;98.40
16412;DHT22;8315;52.104;6.304;2023-01-28T03:21:56;4.00;98.40
16412;DHT22;8315;52.104;6.304;2023-01-28T03:24:41;4.10;98.40
16412;DHT22;8315;52.104;6.304;2023-01-28T03:27:31;4.00;98.40
16412;DHT22;8315;52.104;6.304;2023-01-28T03:30:19;4.00;98.40
16412;DHT22;8315;52.104;6.304;2023-01-28T03:33:13;4.00;98.40
16412;DHT22;8315;52.104;6.304;2023-01-28T03:35:58;3.90;98.40
16412;DHT22;8315;52.104;6.304;2023-01-28T03:38:43;4.00;98.40
16412;DHT22;8315;52.104;6.304;2023-01-28T03:41:18;3.90;98.40
16412;DHT22;8315;52.104;6.304;2023-01-28T03:43:46;3.90;98.40
16412;DHT22;8315;52.104;6.304;2023-01-28T03:46:13;3.90;98.40
16412;DHT22;8315;52.104;6.304;2023-01-28T03:48:42;3.90;98.40
16412;DHT22;8315;52.104;6.304;2023-01-28T03:51:12;3.90;98.40
16412;DHT22;8315;52.104;6.304;2023-01-28T03:53:39;3.90;98.40
16412;DHT22;8315;52.104;6.304;2023-01-28T03:56:06;4.00;98.40
16412;DHT22;8315;52.104;6.304;2023-01-28T03:58:34;3.90;98.40
16412;DHT22;8315;52.104;6.304;2023-01-28T04:01:17;3.80;98.40
16412;DHT22;8315;52.104;6.304;2023-01-28T04:03:46;3.80;98.40
16412;DHT22;8315;52.104;6.304;2023-01-28T04:06:17;3.90;98.40
16412;DHT22;8315;52.104;6.304;2023-01-28T04:08:51;3.80;98.40
16412;DHT22;8315;52.104;6.304;2023-01-28T04:11:24;3.70;98.40
16412;DHT22;8315;52.104;6.304;2023-01-28T04:13:52;3.70;98.40
16412;DHT22;8315;52.104;6.304;2023-01-28T04:16:20;3.70;98.40
16412;DHT22;8315;52.104;6.304;2023-01-28T04:18:48;3.60;98.40
16412;DHT22;8315;52.104;6.304;2023-01-28T04:21:15;3.50;98.40
16412;DHT22;8315;52.104;6.304;2023-01-28T04:23:43;3.30;98.40
16412;DHT22;8315;52.104;6.304;2023-01-28T04:26:12;3.40;98.40
16412;DHT22;8315;52.104;6.304;2023-01-28T04:28:39;3.40;98.40
16412;DHT22;8315;52.104;6.304;2023-01-28T04:31:06;3.30;98.40
16412;DHT22;8315;52.104;6.304;2023-01-28T04:33:44;3.20;98.40
16412;DHT22;8315;52.104;6.304;2023-01-28T04:36:24;3.30;98.40
16412;DHT22;8315;52.104;6.304;2023-01-28T04:39:05;3.10;98.40
16412;DHT22;8315;52.104;6.304;2023-01-28T04:41:35;3.10;98.40
16412;DHT22;8315;52.104;6.304;2023-01-28T04:44:08;3.20;98.40
16412;DHT22;8315;52.104;6.304;2023-01-28T04:46:52;3.20;98.40
16412;DHT22;8315;52.104;6.304;2023-01-28T04:49:33;3.00;98.40
16412;DHT22;8315;52.104;6.304;2023-01-28T04:52:26;3.20;98.40
16412;DHT22;8315;52.104;6.304;2023-01-28T04:55:22;3.30;98.40
16412;DHT22;8315;52.104;6.304;2023-01-28T04:57:49;3.40;98.40
16412;DHT22;8315;52.104;6.304;2023-01-28T05:00:16;3.40;98.40
16412;DHT22;8315;52.104;6.304;2023-01-28T05:02:44;3.40;98.40
16412;DHT22;8315;52.104;6.304;2023-01-28T05:05:11;3.40;98.40
16412;DHT22;8315;52.104;6.304;2023-01-28T05:07:58;3.30;98.40
16412;DHT22;8315;52.104;6.304;2023-01-28T05:10:25;3.40;98.40
16412;DHT22;8315;52.104;6.304;2023-01-28T05:12:53;3.30;98.40
16412;DHT22;8315;52.104;6.304;2023-01-28T05:15:20;3.20;98.40
16412;DHT22;8315;52.104;6.304;2023-01-28T05:17:48;3.10;98.40
16412;DHT22;8315;52.104;6.304;2023-01-28T05:20:18;3.10;98.40
16412;DHT22;8315;52.104;6.304;2023-01-28T05:22:48;3.10;98.40
16412;DHT22;8315;52.104;6.304;2023-01-28T05:25:20;3.10;98.40
16412;DHT22;8315;52.104;6.304;2023-01-28T05:27:48;3.20;98.40
16412;DHT22;8315;52.104;6.304;2023-01-28T05:30:16;3.10;98.40
16412;DHT22;8315;52.104;6.304;2023-01-28T05:32:43;3.10;98.40
16412;DHT22;8315;52.104;6.304;2023-01-28T05:35:11;3.20;98.40
16412;DHT22;8315;52.104;6.304;2023-01-28T05:37:38;3.20;98.40
16412;DHT22;8315;52.104;6.304;2023-01-28T05:40:05;3.10;98.40
16412;DHT22;8315;52.104;6.304;2023-01-28T05:42:34;3.20;98.40
16412;DHT22;8315;52.104;6.304;2023-01-28T05:45:19;3.30;98.40
16412;DHT22;8315;52.104;6.304;2023-01-28T05:48:01;3.20;98.40
16412;DHT22;8315;52.104;6.304;2023-01-28T05:51:04;3.20;98.40
16412;DHT22;8315;52.104;6.304;2023-01-28T05:53:36;3.30;98.40
16412;DHT22;8315;52.104;6.304;2023-01-28T05:56:04;3.10;98.40
16412;DHT22;8315;52.104;6.304;2023-01-28T05:58:34;3.20;98.40
16412;DHT22;8315;52.104;6.304;2023-01-28T06:01:02;3.30;98.40
16412;DHT22;8315;52.104;6.304;2023-01-28T06:03:40;3.30;98.40
16412;DHT22;8315;52.104;6.304;2023-01-28T06:06:07;3.20;98.40
16412;DHT22;8315;52.104;6.304;2023-01-28T06:08:34;3.20;98.40
16412;DHT22;8315;52.104;6.304;2023-01-28T06:11:02;3.20;98.40
16412;DHT22;8315;52.104;6.304;2023-01-28T06:13:31;3.20;98.40
16412;DHT22;8315;52.104;6.304;2023-01-28T06:16:18;3.20;98.40
16412;DHT22;8315;52.104;6.304;2023-01-28T06:19:18;3.10;98.40
16412;DHT22;8315;52.104;6.304;2023-01-28T06:21:45;3.10;98.40
16412;DHT22;8315;52.104;6.304;2023-01-28T06:24:12;3.10;98.40
16412;DHT22;8315;52.104;6.304;2023-01-28T06:26:40;3.20;98.40
16412;DHT22;8315;52.104;6.304;2023-01-28T06:29:07;3.30;98.40
16412;DHT22;8315;52.104;6.304;2023-01-28T06:31:35;3.30;98.40
16412;DHT22;8315;52.104;6.304;2023-01-28T06:34:02;3.20;98.40
16412;DHT22;8315;52.104;6.304;2023-01-28T06:36:29;3.10;98.40
16412;DHT22;8315;52.104;6.304;2023-01-28T06:38:56;3.20;98.40
16412;DHT22;8315;52.104;6.304;2023-01-28T06:41:23;3.20;98.40
16412;DHT22;8315;52.104;6.304;2023-01-28T06:43:49;3.20;98.40
16412;DHT22;8315;52.104;6.304;2023-01-28T06:46:17;3.20;98.40
16412;DHT22;8315;52.104;6.304;2023-01-28T06:48:45;3.10;98.40
16412;DHT22;8315;52.104;6.304;2023-01-28T06:51:12;3.10;98.40
16412;DHT22;8315;52.104;6.304;2023-01-28T06:53:39;3.00;98.40
16412;DHT22;8315;52.104;6.304;2023-01-28T06:56:06;3.00;98.40
16412;DHT22;8315;52.104;6.304;2023-01-28T06:58:33;2.80;98.40
16412;DHT22;8315;52.104;6.304;2023-01-28T07:01:00;2.70;98.40
16412;DHT22;8315;52.104;6.304;2023-01-28T07:03:28;2.60;98.40
16412;DHT22;8315;52.104;6.304;2023-01-28T07:05:56;2.40;98.40
16412;DHT22;8315;52.104;6.304;2023-01-28T07:08:23;2.50;98.40
16412;DHT22;8315;52.104;6.304;2023-01-28T07:10:49;2.60;98.40
16412;DHT22;8315;52.104;6.304;2023-01-28T07:13:16;2.50;98.40
16412;DHT22;8315;52.104;6.304;2023-01-28T07:15:43;2.60;98.40
16412;DHT22;8315;52.104;6.304;2023-01-28T07:18:10;2.60;98.40
16412;DHT22;8315;52.104;6.304;2023-01-28T07:20:37;2.80;98.40
16412;DHT22;8315;52.104;6.304;2023-01-28T07:23:05;2.90;98.40
16412;DHT22;8315;52.104;6.304;2023-01-28T07:25:32;2.90;98.40
16412;DHT22;8315;52.104;6.304;2023-01-28T07:27:59;3.00;98.40
16412;DHT22;8315;52.104;6.304;2023-01-28T07:30:25;3.10;98.40
16412;DHT22;8315;52.104;6.304;2023-01-28T07:32:53;3.20;98.40
16412;DHT22;8315;52.104;6.304;2023-01-28T07:35:20;3.10;98.40
16412;DHT22;8315;52.104;6.304;2023-01-28T07:37:51;3.10;98.40
16412;DHT22;8315;52.104;6.304;2023-01-28T07:40:20;3.20;98.40
16412;DHT22;8315;52.104;6.304;2023-01-28T07:42:47;3.00;98.40
16412;DHT22;8315;52.104;6.304;2023-01-28T07:45:14;3.00;98.40
16412;DHT22;8315;52.104;6.304;2023-01-28T07:47:41;3.10;98.40
16412;DHT22;8315;52.104;6.304;2023-01-28T07:50:08;3.10;98.40
16412;DHT22;8315;52.104;6.304;2023-01-28T07:52:36;3.10;98.40
16412;DHT22;8315;52.104;6.304;2023-01-28T07:55:09;3.00;98.40
16412;DHT22;8315;52.104;6.304;2023-01-28T07:57:46;3.10;98.40
16412;DHT22;8315;52.104;6.304;2023-01-28T08:00:14;3.20;98.40
16412;DHT22;8315;52.104;6.304;2023-01-28T08:02:41;3.20;98.40
16412;DHT22;8315;52.104;6.304;2023-01-28T08:05:09;3.20;98.40
16412;DHT22;8315;52.104;6.304;2023-01-28T08:07:36;3.20;98.40
16412;DHT22;8315;52.104;6.304;2023-01-28T08:10:03;3.20;98.40
16412;DHT22;8315;52.104;6.304;2023-01-28T08:12:30;3.10;98.40
16412;DHT22;8315;52.104;6.304;2023-01-28T08:14:58;3.20;98.40
16412;DHT22;8315;52.104;6.304;2023-01-28T08:17:25;3.20;98.40
16412;DHT22;8315;52.104;6.304;2023-01-28T08:19:53;3.20;98.40
16412;DHT22;8315;52.104;6.304;2023-01-28T08:22:22;3.30;98.40
16412;DHT22;8315;52.104;6.304;2023-01-28T08:24:50;3.20;98.40
16412;DHT22;8315;52.104;6.304;2023-01-28T08:27:17;3.20;98.40
16412;DHT22;8315;52.104;6.304;2023-01-28T08:29:43;3.10;98.40
16412;DHT22;8315;52.104;6.304;2023-01-28T08:32:12;3.00;98.40
16412;DHT22;8315;52.104;6.304;2023-01-28T08:34:38;3.10;98.40
16412;DHT22;8315;52.104;6.304;2023-01-28T08:37:05;3.20;98.40
16412;DHT22;8315;52.104;6.304;2023-01-28T08:39:32;3.20;98.40
16412;DHT22;8315;52.104;6.304;2023-01-28T08:41:59;3.20;98.40
16412;DHT22;8315;52.104;6.304;2023-01-28T08:44:26;3.20;98.40
16412;DHT22;8315;52.104;6.304;2023-01-28T08:46:53;3.20;98.40
16412;DHT22;8315;52.104;6.304;2023-01-28T08:49:21;3.00;98.40
16412;DHT22;8315;52.104;6.304;2023-01-28T08:51:48;3.00;98.40
16412;DHT22;8315;52.104;6.304;2023-01-28T08:54:15;2.90;98.40
16412;DHT22;8315;52.104;6.304;2023-01-28T08:56:42;3.00;98.40
16412;DHT22;8315;52.104;6.304;2023-01-28T08:59:09;3.00;98.40
16412;DHT22;8315;52.104;6.304;2023-01-28T09:01:36;3.10;98.40
16412;DHT22;8315;52.104;6.304;2023-01-28T09:04:03;2.90;98.40
16412;DHT22;8315;52.104;6.304;2023-01-28T09:06:31;3.00;98.40
16412;DHT22;8315;52.104;6.304;2023-01-28T09:08:58;3.10;98.40
16412;DHT22;8315;52.104;6.304;2023-01-28T09:11:25;3.20;98.40
16412;DHT22;8315;52.104;6.304;2023-01-28T09:13:53;3.20;98.40
16412;DHT22;8315;52.104;6.304;2023-01-28T09:16:20;3.20;98.40
16412;DHT22;8315;52.104;6.304;2023-01-28T09:18:46;3.00;98.40
16412;DHT22;8315;52.104;6.304;2023-01-28T09:21:13;2.90;98.40
16412;DHT22;8315;52.104;6.304;2023-01-28T09:23:41;2.90;98.40
16412;DHT22;8315;52.104;6.304;2023-01-28T09:26:09;3.10;98.40
16412;DHT22;8315;52.104;6.304;2023-01-28T09:28:36;3.10;98.40
16412;DHT22;8315;52.104;6.304;2023-01-28T09:31:03;3.20;98.40
16412;DHT22;8315;52.104;6.304;2023-01-28T09:33:30;3.10;98.40
16412;DHT22;8315;52.104;6.304;2023-01-28T09:35:58;3.20;98.40
16412;DHT22;8315;52.104;6.304;2023-01-28T09:38:25;3.20;98.40
16412;DHT22;8315;52.104;6.304;2023-01-28T09:40:53;3.20;98.40
16412;DHT22;8315;52.104;6.304;2023-01-28T09:43:34;3.20;98.40
16412;DHT22;8315;52.104;6.304;2023-01-28T09:46:07;3.10;98.40
16412;DHT22;8315;52.104;6.304;2023-01-28T09:48:36;3.00;98.40
16412;DHT22;8315;52.104;6.304;2023-01-28T09:51:07;3.10;98.40
16412;DHT22;8315;52.104;6.304;2023-01-28T09:53:38;3.20;98.40
16412;DHT22;8315;52.104;6.304;2023-01-28T09:56:10;3.00;98.40
16412;DHT22;8315;52.104;6.304;2023-01-28T09:58:40;3.20;98.40
16412;DHT22;8315;52.104;6.304;2023-01-28T10:01:20;3.20;98.40
16412;DHT22;8315;52.104;6.304;2023-01-28T10:04:05;3.00;98.40
16412;DHT22;8315;52.104;6.304;2023-01-28T10:06:44;3.00;98.40
16412;DHT22;8315;52.104;6.304;2023-01-28T10:09:23;3.00;98.40
16412;DHT22;8315;52.104;6.304;2023-01-28T10:12:10;3.20;98.40
16412;DHT22;8315;52.104;6.304;2023-01-28T10:14:49;3.40;98.40
16412;DHT22;8315;52.104;6.304;2023-01-28T10:17:25;3.40;98.40
16412;DHT22;8315;52.104;6.304;2023-01-28T10:19:54;3.40;98.40
16412;DHT22;8315;52.104;6.304;2023-01-28T10:22:23;3.50;98.40
16412;DHT22;8315;52.104;6.304;2023-01-28T10:24:53;3.50;98.40
16412;DHT22;8315;52.104;6.304;2023-01-28T10:27:28;3.20;98.40
16412;DHT22;8315;52.104;6.304;2023-01-28T10:29:56;3.40;98.40
16412;DHT22;8315;52.104;6.304;2023-01-28T10:32:26;3.40;98.40
16412;DHT22;8315;52.104;6.304;2023-01-28T10:34:58;3.30;98.40
16412;DHT22;8315;52.104;6.304;2023-01-28T10:37:26;3.20;98.40
16412;DHT22;8315;52.104;6.304;2023-01-28T10:39:54;3.30;98.40
16412;DHT22;8315;52.104;6.304;2023-01-28T10:42:25;3.30;98.40
16412;DHT22;8315;52.104;6.304;2023-01-28T10:44:55;3.20;98.40
16412;DHT22;8315;52.104;6.304;2023-01-28T10:47:27;3.40;98.40
16412;DHT22;8315;52.104;6.304;2023-01-28T10:49:57;3.80;98.40
16412;DHT22;8315;52.104;6.304;2023-01-28T10:52:25;3.60;98.40
16412;DHT22;8315;52.104;6.304;2023-01-28T10:54:58;3.80;98.40
16412;DHT22;8315;52.104;6.304;2023-01-28T10:57:28;3.90;98.40
16412;DHT22;8315;52.104;6.304;2023-01-28T10:59:55;4.20;98.40
16412;DHT22;8315;52.104;6.304;2023-01-28T11:02:25;4.10;98.40
16412;DHT22;8315;52.104;6.304;2023-01-28T11:05:06;4.20;98.40
16412;DHT22;8315;52.104;6.304;2023-01-28T11:07:41;4.50;98.40
16412;DHT22;8315;52.104;6.304;2023-01-28T11:10:24;4.80;98.40
16412;DHT22;8315;52.104;6.304;2023-01-28T11:12:56;4.90;98.40
16412;DHT22;8315;52.104;6.304;2023-01-28T11:15:24;4.70;98.40
16412;DHT22;8315;52.104;6.304;2023-01-28T11:17:53;4.70;98.40
16412;DHT22;8315;52.104;6.304;2023-01-28T11:20:22;5.00;98.40
16412;DHT22;8315;52.104;6.304;2023-01-28T11:22:50;5.20;98.40
16412;DHT22;8315;52.104;6.304;2023-01-28T11:25:20;5.30;98.40
16412;DHT22;8315;52.104;6.304;2023-01-28T11:27:51;5.40;98.40
16412;DHT22;8315;52.104;6.304;2023-01-28T11:30:22;5.60;98.40
16412;DHT22;8315;52.104;6.304;2023-01-28T11:32:56;5.60;98.40
16412;DHT22;8315;52.104;6.304;2023-01-28T11:35:25;5.50;98.40
16412;DHT22;8315;52.104;6.304;2023-01-28T11:37:54;5.40;98.40
16412;DHT22;8315;52.104;6.304;2023-01-28T11:40:21;5.50;98.40
16412;DHT22;8315;52.104;6.304;2023-01-28T11:42:49;5.60;98.40
16412;DHT22;8315;52.104;6.304;2023-01-28T11:45:17;5.70;98.40
16412;DHT22;8315;52.104;6.304;2023-01-28T11:47:59;5.80;98.40
16412;DHT22;8315;52.104;6.304;2023-01-28T11:50:35;5.90;98.40
16412;DHT22;8315;52.104;6.304;2023-01-28T11:53:10;5.90;98.40
16412;DHT22;8315;52.104;6.304;2023-01-28T11:55:49;5.90;98.40
16412;DHT22;8315;52.104;6.304;2023-01-28T11:58:21;6.00;98.40
16412;DHT22;8315;52.104;6.304;2023-01-28T12:00:57;6.00;97.60
16412;DHT22;8315;52.104;6.304;2023-01-28T12:03:31;6.10;98.40
16412;DHT22;8315;52.104;6.304;2023-01-28T12:06:11;6.40;98.10
16412;DHT22;8315;52.104;6.304;2023-01-28T12:08:44;6.30;98.00
16412;DHT22;8315;52.104;6.304;2023-01-28T12:11:19;6.20;97.60
16412;DHT22;8315;52.104;6.304;2023-01-28T12:14:13;6.30;96.80
16412;DHT22;8315;52.104;6.304;2023-01-28T12:16:50;6.40;97.00
16412;DHT22;8315;52.104;6.304;2023-01-28T12:19:32;6.60;97.20
16412;DHT22;8315;52.104;6.304;2023-01-28T12:22:11;6.70;97.40
16412;DHT22;8315;52.104;6.304;2023-01-28T12:24:50;6.80;96.20
16412;DHT22;8315;52.104;6.304;2023-01-28T12:27:25;6.80;95.90
16412;DHT22;8315;52.104;6.304;2023-01-28T12:30:03;6.70;96.30
16412;DHT22;8315;52.104;6.304;2023-01-28T12:32:39;6.20;96.20
16412;DHT22;8315;52.104;6.304;2023-01-28T12:35:18;6.30;97.10
16412;DHT22;8315;52.104;6.304;2023-01-28T12:37:55;6.40;96.50
16412;DHT22;8315;52.104;6.304;2023-01-28T12:40:32;6.50;97.00
16412;DHT22;8315;52.104;6.304;2023-01-28T12:43:10;6.80;96.30
16412;DHT22;8315;52.104;6.304;2023-01-28T12:45:39;7.20;95.70
16412;DHT22;8315;52.104;6.304;2023-01-28T12:48:10;7.40;95.10
16412;DHT22;8315;52.104;6.304;2023-01-28T12:50:41;7.60;93.60
16412;DHT22;8315;52.104;6.304;2023-01-28T12:53:16;7.70;94.00
16412;DHT22;8315;52.104;6.304;2023-01-28T12:55:47;7.80;94.50
16412;DHT22;8315;52.104;6.304;2023-01-28T12:58:16;7.90;94.80
16412;DHT22;8315;52.104;6.304;2023-01-28T13:00:47;8.10;93.60
16412;DHT22;8315;52.104;6.304;2023-01-28T13:03:17;8.20;93.70
16412;DHT22;8315;52.104;6.304;2023-01-28T13:05:49;8.00;92.50
16412;DHT22;8315;52.104;6.304;2023-01-28T13:08:18;7.40;93.40
16412;DHT22;8315;52.104;6.304;2023-01-28T13:10:49;7.00;94.80
16412;DHT22;8315;52.104;6.304;2023-01-28T13:13:17;7.00;95.60
16412;DHT22;8315;52.104;6.304;2023-01-28T13:15:46;6.90;96.10
16412;DHT22;8315;52.104;6.304;2023-01-28T13:21:00;6.70;95.40
16412;DHT22;8315;52.104;6.304;2023-01-28T13:23:36;6.70;95.60
16412;DHT22;8315;52.104;6.304;2023-01-28T13:26:11;6.70;95.60
16412;DHT22;8315;52.104;6.304;2023-01-28T13:28:53;6.50;96.10
16412;DHT22;8315;52.104;6.304;2023-01-28T13:31:35;6.40;96.60
16412;DHT22;8315;52.104;6.304;2023-01-28T13:34:04;6.50;96.10
16412;DHT22;8315;52.104;6.304;2023-01-28T13:36:36;6.50;95.90
16412;DHT22;8315;52.104;6.304;2023-01-28T13:39:04;6.50;96.50
16412;DHT22;8315;52.104;6.304;2023-01-28T13:41:39;6.70;96.40
16412;DHT22;8315;52.104;6.304;2023-01-28T13:44:17;6.70;96.60
16412;DHT22;8315;52.104;6.304;2023-01-28T13:46:45;6.80;96.00
16412;DHT22;8315;52.104;6.304;2023-01-28T13:49:13;7.20;94.90
16412;DHT22;8315;52.104;6.304;2023-01-28T13:51:46;7.40;95.30
16412;DHT22;8315;52.104;6.304;2023-01-28T13:54:22;7.60;94.50
16412;DHT22;8315;52.104;6.304;2023-01-28T13:56:55;7.80;93.90
16412;DHT22;8315;52.104;6.304;2023-01-28T13:59:37;7.90;93.50
16412;DHT22;8315;52.104;6.304;2023-01-28T14:05:13;8.10;92.40
16412;DHT22;8315;52.104;6.304;2023-01-28T14:10:58;8.10;92.90
16412;DHT22;8315;52.104;6.304;2023-01-28T14:16:33;8.40;92.30
16412;DHT22;8315;52.104;6.304;2023-01-28T14:19:04;8.30;91.80
16412;DHT22;8315;52.104;6.304;2023-01-28T14:21:31;8.50;92.50
16412;DHT22;8315;52.104;6.304;2023-01-28T14:24:01;8.50;91.20
16412;DHT22;8315;52.104;6.304;2023-01-28T14:26:34;8.40;91.40
16412;DHT22;8315;52.104;6.304;2023-01-28T14:29:10;8.20;91.70
16412;DHT22;8315;52.104;6.304;2023-01-28T14:31:41;8.30;91.90
16412;DHT22;8315;52.104;6.304;2023-01-28T14:34:12;8.30;91.50
16412;DHT22;8315;52.104;6.304;2023-01-28T14:36:44;8.50;92.30
16412;DHT22;8315;52.104;6.304;2023-01-28T14:39:17;8.50;91.90
16412;DHT22;8315;52.104;6.304;2023-01-28T14:41:45;8.50;92.20
16412;DHT22;8315;52.104;6.304;2023-01-28T14:44:18;8.50;90.40
16412;DHT22;8315;52.104;6.304;2023-01-28T14:46:55;8.60;90.40
16412;DHT22;8315;52.104;6.304;2023-01-28T14:49:41;8.50;91.20
16412;DHT22;8315;52.104;6.304;2023-01-28T14:52:18;8.50;91.40
16412;DHT22;8315;52.104;6.304;2023-01-28T14:54:59;8.40;90.40
16412;DHT22;8315;52.104;6.304;2023-01-28T14:57:35;8.20;91.20
16412;DHT22;8315;52.104;6.304;2023-01-28T15:00:15;8.40;90.60
16412;DHT22;8315;52.104;6.304;2023-01-28T15:02:45;8.30;90.30
16412;DHT22;8315;52.104;6.304;2023-01-28T15:05:14;8.30;90.60
16412;DHT22;8315;52.104;6.304;2023-01-28T15:07:42;7.90;91.30
16412;DHT22;8315;52.104;6.304;2023-01-28T15:10:15;7.90;91.90
16412;DHT22;8315;52.104;6.304;2023-01-28T15:12:45;8.10;91.80
16412;DHT22;8315;52.104;6.304;2023-01-28T15:15:17;8.20;92.70
16412;DHT22;8315;52.104;6.304;2023-01-28T15:17:46;8.40;91.80
16412;DHT22;8315;52.104;6.304;2023-01-28T15:20:15;8.30;91.50
16412;DHT22;8315;52.104;6.304;2023-01-28T15:22:44;8.40;92.00
16412;DHT22;8315;52.104;6.304;2023-01-28T15:25:16;8.40;91.20
16412;DHT22;8315;52.104;6.304;2023-01-28T15:27:44;8.30;91.40
16412;DHT22;8315;52.104;6.304;2023-01-28T15:30:19;8.40;91.70
16412;DHT22;8315;52.104;6.304;2023-01-28T15:32:55;8.20;91.80
16412;DHT22;8315;52.104;6.304;2023-01-28T15:35:23;7.80;92.30
16412;DHT22;8315;52.104;6.304;2023-01-28T15:37:50;7.70;93.20
16412;DHT22;8315;52.104;6.304;2023-01-28T15:40:19;7.70;93.20
16412;DHT22;8315;52.104;6.304;2023-01-28T15:42:47;7.70;93.40
16412;DHT22;8315;52.104;6.304;2023-01-28T15:45:15;7.60;93.70
16412;DHT22;8315;52.104;6.304;2023-01-28T15:47:42;7.50;92.60
16412;DHT22;8315;52.104;6.304;2023-01-28T15:50:14;7.30;93.40
16412;DHT22;8315;52.104;6.304;2023-01-28T15:52:43;7.00;93.80
16412;DHT22;8315;52.104;6.304;2023-01-28T15:55:26;6.90;95.30
16412;DHT22;8315;52.104;6.304;2023-01-28T15:57:56;6.80;95.60
16412;DHT22;8315;52.104;6.304;2023-01-28T16:00:23;6.50;96.80
16412;DHT22;8315;52.104;6.304;2023-01-28T16:02:51;6.40;96.60
16412;DHT22;8315;52.104;6.304;2023-01-28T16:05:23;6.40;96.30
16412;DHT22;8315;52.104;6.304;2023-01-28T16:07:51;6.20;97.10
16412;DHT22;8315;52.104;6.304;2023-01-28T16:10:19;6.20;97.10
16412;DHT22;8315;52.104;6.304;2023-01-28T16:12:50;6.20;97.00
16412;DHT22;8315;52.104;6.304;2023-01-28T16:15:18;6.10;97.40
16412;DHT22;8315;52.104;6.304;2023-01-28T16:17:47;5.90;97.70
16412;DHT22;8315;52.104;6.304;2023-01-28T16:20:19;5.90;97.80
16412;DHT22;8315;52.104;6.304;2023-01-28T16:22:47;5.80;98.20
16412;DHT22;8315;52.104;6.304;2023-01-28T16:25:22;5.70;98.40
16412;DHT22;8315;52.104;6.304;2023-01-28T16:27:55;5.60;98.40
16412;DHT22;8315;52.104;6.304;2023-01-28T16:30:22;5.60;98.40
16412;DHT22;8315;52.104;6.304;2023-01-28T16:32:49;5.50;98.40
16412;DHT22;8315;52.104;6.304;2023-01-28T16:35:17;5.30;98.40
16412;DHT22;8315;52.104;6.304;2023-01-28T16:37:44;5.30;98.40
16412;DHT22;8315;52.104;6.304;2023-01-28T16:40:12;5.30;98.40